sensor_id;sensor_type;location;lat;lon;timestamp;temperature;humidity
18444;DHT22;9350;53.176;8.194;2023-02-28T00:00:10;4.20;99.90
18444;DHT22;9350;53.176;8.194;2023-02-28T00:02:37;4.20;99.90
18444;DHT22;9350;53.176;8.194;2023-02-28T00:05:05;4.20;99.90
18444;DHT22;9350;53.176;8.194;2023-02-28T00:07:32;4.10;99.90
18444;DHT22;9350;53.176;8.194;2023-02-28T00:09:59;4.20;99.90
18444;DHT22;9350;53.176;8.194;2023-02-28T00:12:27;4.20;99.90
18444;DHT22;9350;53.176;8.194;2023-02-28T00:14:55;4.20;99.90
18444;DHT22;9350;53.176;8.194;2023-02-28T00:17:22;4.20;99.90
18444;DHT22;9350;53.176;8.194;2023-02-28T00:19:49;4.10;99.90
18444;DHT22;9350;53.176;8.194;2023-02-28T00:22:18;4.20;99.90
18444;DHT22;9350;53.176;8.194;2023-02-28T00:24:45;4.10;99.90
18444;DHT22;9350;53.176;8.194;2023-02-28T00:27:13;4.10;99.90
18444;DHT22;9350;53.176;8.194;2023-02-28T00:29:40;4.40;99.90
18444;DHT22;9350;53.176;8.194;2023-02-28T00:32:08;4.20;99.90
18444;DHT22;9350;53.176;8.194;2023-02-28T00:34:35;4.20;99.90
18444;DHT22;9350;53.176;8.194;2023-02-28T00:37:04;4.10;99.90
18444;DHT22;9350;53.176;8.194;2023-02-28T00:39:32;4.20;99.90
18444;DHT22;9350;53.176;8.194;2023-02-28T00:41:59;4.20;99.90
18444;DHT22;9350;53.176;8.194;2023-02-28T00:44:26;4.20;99.90
18444;DHT22;9350;53.176;8.194;2023-02-28T00:46:53;4.20;99.90
18444;DHT22;9350;53.176;8.194;2023-02-28T00:49:22;4.20;99.90
18444;DHT22;9350;53.176;8.194;2023-02-28T00:51:49;4.10;99.90
18444;DHT22;9350;53.176;8.194;2023-02-28T00:54:16;4.20;99.90
18444;DHT22;9350;53.176;8.194;2023-02-28T00:56:43;4.20;99.90
18444;DHT22;9350;53.176;8.194;2023-02-28T00:59:11;4.20;99.90
18444;DHT22;9350;53.176;8.194;2023-02-28T01:01:38;5.20;99.90
18444;DHT22;9350;53.176;8.194;2023-02-28T01:04:05;4.10;99.90
18444;DHT22;9350;53.176;8.194;2023-02-28T01:06:33;4.10;99.90
18444;DHT22;9350;53.176;8.194;2023-02-28T01:09:01;4.10;99.90
18444;DHT22;9350;53.176;8.194;2023-02-28T01:11:28;4.00;99.90
18444;DHT22;9350;53.176;8.194;2023-02-28T01:13:56;4.10;99.90
18444;DHT22;9350;53.176;8.194;2023-02-28T01:16:23;4.00;99.90
18444;DHT22;9350;53.176;8.194;2023-02-28T01:18:49;4.30;99.90
18444;DHT22;9350;53.176;8.194;2023-02-28T01:21:19;4.00;99.90
18444;DHT22;9350;53.176;8.194;2023-02-28T01:23:48;4.10;99.90
18444;DHT22;9350;53.176;8.194;2023-02-28T01:26:16;4.10;99.90
18444;DHT22;9350;53.176;8.194;2023-02-28T01:28:43;4.10;99.90
18444;DHT22;9350;53.176;8.194;2023-02-28T01:31:11;4.00;99.90
18444;DHT22;9350;53.176;8.194;2023-02-28T01:33:41;4.10;99.90
18444;DHT22;9350;53.176;8.194;2023-02-28T01:36:10;4.10;99.90
18444;DHT22;9350;53.176;8.194;2023-02-28T01:38:37;4.10;99.90
18444;DHT22;9350;53.176;8.194;2023-02-28T01:41:07;4.10;99.90
18444;DHT22;9350;53.176;8.194;2023-02-28T01:43:53;4.10;99.90
18444;DHT22;9350;53.176;8.194;2023-02-28T01:46:20;4.10;99.90
18444;DHT22;9350;53.176;8.194;2023-02-28T01:48:51;4.10;99.90
18444;DHT22;9350;53.176;8.194;2023-02-28T01:51:22;4.00;99.90
18444;DHT22;9350;53.176;8.194;2023-02-28T01:53:52;4.00;99.90
18444;DHT22;9350;53.176;8.194;2023-02-28T01:56:25;4.10;99.90
18444;DHT22;9350;53.176;8.194;2023-02-28T01:58:54;4.10;99.90
18444;DHT22;9350;53.176;8.194;2023-02-28T02:01:22;4.10;99.90
18444;DHT22;9350;53.176;8.194;2023-02-28T02:03:52;4.10;99.90
18444;DHT22;9350;53.176;8.194;2023-02-28T02:06:21;4.00;99.90
18444;DHT22;9350;53.176;8.194;2023-02-28T02:08:48;4.00;99.90
18444;DHT22;9350;53.176;8.194;2023-02-28T02:11:17;4.10;99.90
18444;DHT22;9350;53.176;8.194;2023-02-28T02:16:55;4.00;99.90
18444;DHT22;9350;53.176;8.194;2023-02-28T02:19:52;4.00;99.90
18444;DHT22;9350;53.176;8.194;2023-02-28T02:25:18;4.20;99.90
18444;DHT22;9350;53.176;8.194;2023-02-28T02:28:07;4.00;99.90
18444;DHT22;9350;53.176;8.194;2023-02-28T02:30:48;4.10;99.90
18444;DHT22;9350;53.176;8.194;2023-02-28T02:33:36;4.00;99.90
18444;DHT22;9350;53.176;8.194;2023-02-28T02:36:12;4.00;99.90
18444;DHT22;9350;53.176;8.194;2023-02-28T02:38:45;4.00;99.90
18444;DHT22;9350;53.176;8.194;2023-02-28T02:41:18;4.00;99.90
18444;DHT22;9350;53.176;8.194;2023-02-28T02:43:49;4.10;99.90
18444;DHT22;9350;53.176;8.194;2023-02-28T02:46:20;4.00;99.90
18444;DHT22;9350;53.176;8.194;2023-02-28T02:48:48;4.10;99.90
18444;DHT22;9350;53.176;8.194;2023-02-28T02:51:20;4.00;99.90
18444;DHT22;9350;53.176;8.194;2023-02-28T02:53:51;4.00;99.90
18444;DHT22;9350;53.176;8.194;2023-02-28T02:56:23;3.90;99.90
18444;DHT22;9350;53.176;8.194;2023-02-28T02:58:52;4.00;99.90
18444;DHT22;9350;53.176;8.194;2023-02-28T03:01:23;4.00;99.90
18444;DHT22;9350;53.176;8.194;2023-02-28T03:03:55;4.00;99.90
18444;DHT22;9350;53.176;8.194;2023-02-28T03:06:25;4.00;99.90
18444;DHT22;9350;53.176;8.194;2023-02-28T03:08:52;4.00;99.90
18444;DHT22;9350;53.176;8.194;2023-02-28T03:11:19;4.00;99.90
18444;DHT22;9350;53.176;8.194;2023-02-28T03:13:54;4.00;99.90
18444;DHT22;9350;53.176;8.194;2023-02-28T03:16:49;4.10;99.90
18444;DHT22;9350;53.176;8.194;2023-02-28T03:19:34;3.90;99.90
18444;DHT22;9350;53.176;8.194;2023-02-28T03:22:24;4.00;99.90
18444;DHT22;9350;53.176;8.194;2023-02-28T03:25:00;3.90;99.90
18444;DHT22;9350;53.176;8.194;2023-02-28T03:27:30;4.00;99.90
18444;DHT22;9350;53.176;8.194;2023-02-28T03:30:01;4.00;99.90
18444;DHT22;9350;53.176;8.194;2023-02-28T03:32:34;4.00;99.90
18444;DHT22;9350;53.176;8.194;2023-02-28T03:35:03;4.00;99.90
18444;DHT22;9350;53.176;8.194;2023-02-28T03:37:35;4.00;99.90
18444;DHT22;9350;53.176;8.194;2023-02-28T03:40:07;3.90;99.90
18444;DHT22;9350;53.176;8.194;2023-02-28T03:42:39;4.00;99.90
18444;DHT22;9350;53.176;8.194;2023-02-28T03:45:11;4.00;99.90
18444;DHT22;9350;53.176;8.194;2023-02-28T03:47:46;4.00;99.90
18444;DHT22;9350;53.176;8.194;2023-02-28T03:52:49;3.90;99.90
18444;DHT22;9350;53.176;8.194;2023-02-28T03:55:17;4.00;99.90
18444;DHT22;9350;53.176;8.194;2023-02-28T03:57:53;3.90;99.90
18444;DHT22;9350;53.176;8.194;2023-02-28T04:00:29;3.90;99.90
18444;DHT22;9350;53.176;8.194;2023-02-28T04:02:58;3.90;99.90
18444;DHT22;9350;53.176;8.194;2023-02-28T04:05:26;3.80;99.90
18444;DHT22;9350;53.176;8.194;2023-02-28T04:08:03;3.80;99.90
18444;DHT22;9350;53.176;8.194;2023-02-28T04:10:30;3.80;99.90
18444;DHT22;9350;53.176;8.194;2023-02-28T04:12:57;3.80;99.90
18444;DHT22;9350;53.176;8.194;2023-02-28T04:15:24;3.80;99.90
18444;DHT22;9350;53.176;8.194;2023-02-28T04:17:52;3.90;99.90
18444;DHT22;9350;53.176;8.194;2023-02-28T04:20:19;3.90;99.90
18444;DHT22;9350;53.176;8.194;2023-02-28T04:22:46;3.90;99.90
18444;DHT22;9350;53.176;8.194;2023-02-28T04:25:14;3.90;99.90
18444;DHT22;9350;53.176;8.194;2023-02-28T04:27:41;3.90;99.90
18444;DHT22;9350;53.176;8.194;2023-02-28T04:30:10;3.90;99.90
18444;DHT22;9350;53.176;8.194;2023-02-28T04:32:37;3.90;99.90
18444;DHT22;9350;53.176;8.194;2023-02-28T04:35:05;3.80;99.90
18444;DHT22;9350;53.176;8.194;2023-02-28T04:37:32;3.90;99.90
18444;DHT22;9350;53.176;8.194;2023-02-28T04:40:00;3.90;99.90
18444;DHT22;9350;53.176;8.194;2023-02-28T04:42:28;3.80;99.90
18444;DHT22;9350;53.176;8.194;2023-02-28T04:45:00;3.90;99.90
18444;DHT22;9350;53.176;8.194;2023-02-28T04:47:27;3.80;99.90
18444;DHT22;9350;53.176;8.194;2023-02-28T04:49:54;3.80;99.90
18444;DHT22;9350;53.176;8.194;2023-02-28T04:52:21;3.80;99.90
18444;DHT22;9350;53.176;8.194;2023-02-28T04:54:48;3.80;99.90
18444;DHT22;9350;53.176;8.194;2023-02-28T04:57:15;3.90;99.90
18444;DHT22;9350;53.176;8.194;2023-02-28T04:59:43;3.80;99.90
18444;DHT22;9350;53.176;8.194;2023-02-28T05:02:10;3.80;99.90
18444;DHT22;9350;53.176;8.194;2023-02-28T05:04:36;3.80;99.90
18444;DHT22;9350;53.176;8.194;2023-02-28T05:07:03;3.80;99.90
18444;DHT22;9350;53.176;8.194;2023-02-28T05:09:30;3.80;99.90
18444;DHT22;9350;53.176;8.194;2023-02-28T05:11:58;3.80;99.90
18444;DHT22;9350;53.176;8.194;2023-02-28T05:14:25;3.80;99.90
18444;DHT22;9350;53.176;8.194;2023-02-28T05:16:53;3.80;99.90
18444;DHT22;9350;53.176;8.194;2023-02-28T05:19:20;3.80;99.90
18444;DHT22;9350;53.176;8.194;2023-02-28T05:21:51;3.80;99.90
18444;DHT22;9350;53.176;8.194;2023-02-28T05:24:19;3.70;99.90
18444;DHT22;9350;53.176;8.194;2023-02-28T05:26:48;3.70;99.90
18444;DHT22;9350;53.176;8.194;2023-02-28T05:29:16;3.70;99.90
18444;DHT22;9350;53.176;8.194;2023-02-28T05:31:43;3.70;99.90
18444;DHT22;9350;53.176;8.194;2023-02-28T05:34:11;3.70;99.90
18444;DHT22;9350;53.176;8.194;2023-02-28T05:36:38;3.70;99.90
18444;DHT22;9350;53.176;8.194;2023-02-28T05:39:06;3.70;99.90
18444;DHT22;9350;53.176;8.194;2023-02-28T05:41:38;3.70;99.90
18444;DHT22;9350;53.176;8.194;2023-02-28T05:44:05;3.60;99.90
18444;DHT22;9350;53.176;8.194;2023-02-28T05:46:32;3.60;99.90
18444;DHT22;9350;53.176;8.194;2023-02-28T05:48:59;3.60;99.90
18444;DHT22;9350;53.176;8.194;2023-02-28T05:51:27;3.50;99.90
18444;DHT22;9350;53.176;8.194;2023-02-28T05:53:54;3.70;99.90
18444;DHT22;9350;53.176;8.194;2023-02-28T05:56:22;3.40;99.90
18444;DHT22;9350;53.176;8.194;2023-02-28T05:58:49;3.30;99.90
18444;DHT22;9350;53.176;8.194;2023-02-28T06:01:30;3.30;99.90
18444;DHT22;9350;53.176;8.194;2023-02-28T06:03:58;3.30;99.90
18444;DHT22;9350;53.176;8.194;2023-02-28T06:06:26;3.30;99.90
18444;DHT22;9350;53.176;8.194;2023-02-28T06:08:53;3.30;99.90
18444;DHT22;9350;53.176;8.194;2023-02-28T06:11:20;3.30;99.90
18444;DHT22;9350;53.176;8.194;2023-02-28T06:13:47;3.30;99.90
18444;DHT22;9350;53.176;8.194;2023-02-28T06:16:14;3.40;99.90
18444;DHT22;9350;53.176;8.194;2023-02-28T06:18:40;3.40;99.90
18444;DHT22;9350;53.176;8.194;2023-02-28T06:21:07;3.50;99.90
18444;DHT22;9350;53.176;8.194;2023-02-28T06:23:35;4.30;99.90
18444;DHT22;9350;53.176;8.194;2023-02-28T06:26:02;3.50;99.90
18444;DHT22;9350;53.176;8.194;2023-02-28T06:28:29;3.50;99.90
18444;DHT22;9350;53.176;8.194;2023-02-28T06:30:56;3.50;99.90
18444;DHT22;9350;53.176;8.194;2023-02-28T06:33:23;3.50;99.90
18444;DHT22;9350;53.176;8.194;2023-02-28T06:35:51;3.50;99.90
18444;DHT22;9350;53.176;8.194;2023-02-28T06:38:18;3.50;99.90
18444;DHT22;9350;53.176;8.194;2023-02-28T06:40:53;3.50;99.90
18444;DHT22;9350;53.176;8.194;2023-02-28T06:43:20;3.60;99.90
18444;DHT22;9350;53.176;8.194;2023-02-28T06:45:46;3.60;99.90
18444;DHT22;9350;53.176;8.194;2023-02-28T06:48:13;3.50;99.90
18444;DHT22;9350;53.176;8.194;2023-02-28T06:50:40;3.50;99.90
18444;DHT22;9350;53.176;8.194;2023-02-28T06:53:07;3.50;99.90
18444;DHT22;9350;53.176;8.194;2023-02-28T06:55:34;3.60;99.90
18444;DHT22;9350;53.176;8.194;2023-02-28T06:58:02;3.50;99.90
18444;DHT22;9350;53.176;8.194;2023-02-28T07:00:28;3.60;99.90
18444;DHT22;9350;53.176;8.194;2023-02-28T07:02:55;3.50;99.90
18444;DHT22;9350;53.176;8.194;2023-02-28T07:05:22;3.60;99.90
18444;DHT22;9350;53.176;8.194;2023-02-28T07:07:49;3.60;99.90
18444;DHT22;9350;53.176;8.194;2023-02-28T07:10:17;3.50;99.90
18444;DHT22;9350;53.176;8.194;2023-02-28T07:12:45;3.70;99.90
18444;DHT22;9350;53.176;8.194;2023-02-28T07:15:13;3.60;99.90
18444;DHT22;9350;53.176;8.194;2023-02-28T07:17:39;3.60;99.90
18444;DHT22;9350;53.176;8.194;2023-02-28T07:20:07;3.60;99.90
18444;DHT22;9350;53.176;8.194;2023-02-28T07:22:34;3.60;99.90
18444;DHT22;9350;53.176;8.194;2023-02-28T07:25:01;3.50;99.90
18444;DHT22;9350;53.176;8.194;2023-02-28T07:27:28;3.60;99.90
18444;DHT22;9350;53.176;8.194;2023-02-28T07:29:55;3.60;99.90
18444;DHT22;9350;53.176;8.194;2023-02-28T07:32:23;3.60;99.90
18444;DHT22;9350;53.176;8.194;2023-02-28T07:34:49;3.60;99.90
18444;DHT22;9350;53.176;8.194;2023-02-28T07:37:16;3.70;99.90
18444;DHT22;9350;53.176;8.194;2023-02-28T07:39:43;3.70;99.90
18444;DHT22;9350;53.176;8.194;2023-02-28T07:42:10;3.70;99.90
18444;DHT22;9350;53.176;8.194;2023-02-28T07:44:37;3.80;99.90
18444;DHT22;9350;53.176;8.194;2023-02-28T07:47:06;3.80;99.90
18444;DHT22;9350;53.176;8.194;2023-02-28T07:49:35;3.80;99.90
18444;DHT22;9350;53.176;8.194;2023-02-28T07:52:03;3.80;99.90
18444;DHT22;9350;53.176;8.194;2023-02-28T07:54:30;3.80;99.90
18444;DHT22;9350;53.176;8.194;2023-02-28T07:56:57;3.80;99.90
18444;DHT22;9350;53.176;8.194;2023-02-28T07:59:24;4.50;99.90
18444;DHT22;9350;53.176;8.194;2023-02-28T08:01:51;3.90;99.90
18444;DHT22;9350;53.176;8.194;2023-02-28T08:04:18;3.80;99.90
18444;DHT22;9350;53.176;8.194;2023-02-28T08:06:46;3.90;99.90
18444;DHT22;9350;53.176;8.194;2023-02-28T08:09:13;3.90;99.90
18444;DHT22;9350;53.176;8.194;2023-02-28T08:11:39;3.90;99.90
18444;DHT22;9350;53.176;8.194;2023-02-28T08:14:06;4.00;99.90
18444;DHT22;9350;53.176;8.194;2023-02-28T08:16:33;4.00;99.90
18444;DHT22;9350;53.176;8.194;2023-02-28T08:19:00;4.00;99.90
18444;DHT22;9350;53.176;8.194;2023-02-28T08:21:27;4.00;99.90
18444;DHT22;9350;53.176;8.194;2023-02-28T08:23:55;4.10;99.90
18444;DHT22;9350;53.176;8.194;2023-02-28T08:26:22;4.10;99.90
18444;DHT22;9350;53.176;8.194;2023-02-28T08:28:49;4.10;99.90
18444;DHT22;9350;53.176;8.194;2023-02-28T08:31:16;4.20;99.90
18444;DHT22;9350;53.176;8.194;2023-02-28T08:33:44;4.20;99.90
18444;DHT22;9350;53.176;8.194;2023-02-28T08:36:11;4.30;99.90
18444;DHT22;9350;53.176;8.194;2023-02-28T08:38:38;4.20;99.90
18444;DHT22;9350;53.176;8.194;2023-02-28T08:41:09;4.30;99.90
18444;DHT22;9350;53.176;8.194;2023-02-28T08:43:37;4.30;99.90
18444;DHT22;9350;53.176;8.194;2023-02-28T08:46:04;4.50;99.90
18444;DHT22;9350;53.176;8.194;2023-02-28T08:48:33;4.40;99.90
18444;DHT22;9350;53.176;8.194;2023-02-28T08:51:05;4.40;99.90
18444;DHT22;9350;53.176;8.194;2023-02-28T08:53:32;4.30;99.90
18444;DHT22;9350;53.176;8.194;2023-02-28T08:56:00;4.40;99.90
18444;DHT22;9350;53.176;8.194;2023-02-28T08:58:28;4.40;99.90
18444;DHT22;9350;53.176;8.194;2023-02-28T09:00:55;4.40;99.90
18444;DHT22;9350;53.176;8.194;2023-02-28T09:03:23;4.50;99.90
18444;DHT22;9350;53.176;8.194;2023-02-28T09:05:54;4.50;99.90
18444;DHT22;9350;53.176;8.194;2023-02-28T09:08:22;4.50;99.90
18444;DHT22;9350;53.176;8.194;2023-02-28T09:10:49;4.50;99.90
18444;DHT22;9350;53.176;8.194;2023-02-28T09:13:16;4.60;99.90
18444;DHT22;9350;53.176;8.194;2023-02-28T09:15:45;4.60;99.90
18444;DHT22;9350;53.176;8.194;2023-02-28T09:18:12;4.60;99.90
18444;DHT22;9350;53.176;8.194;2023-02-28T09:20:40;5.00;99.90
18444;DHT22;9350;53.176;8.194;2023-02-28T09:23:07;4.60;99.90
18444;DHT22;9350;53.176;8.194;2023-02-28T09:25:34;4.70;99.90
18444;DHT22;9350;53.176;8.194;2023-02-28T09:28:01;4.70;99.90
18444;DHT22;9350;53.176;8.194;2023-02-28T09:30:29;4.70;99.90
18444;DHT22;9350;53.176;8.194;2023-02-28T09:32:57;4.70;99.90
18444;DHT22;9350;53.176;8.194;2023-02-28T09:35:24;4.80;99.90
18444;DHT22;9350;53.176;8.194;2023-02-28T09:37:52;4.80;99.90
18444;DHT22;9350;53.176;8.194;2023-02-28T09:40:22;4.90;99.90
18444;DHT22;9350;53.176;8.194;2023-02-28T09:42:53;4.70;99.90
18444;DHT22;9350;53.176;8.194;2023-02-28T09:45:24;4.70;99.90
18444;DHT22;9350;53.176;8.194;2023-02-28T09:47:54;4.80;99.90
18444;DHT22;9350;53.176;8.194;2023-02-28T09:50:30;4.70;99.90
18444;DHT22;9350;53.176;8.194;2023-02-28T09:53:02;4.90;99.90
18444;DHT22;9350;53.176;8.194;2023-02-28T09:55:33;4.90;99.90
18444;DHT22;9350;53.176;8.194;2023-02-28T09:58:03;4.90;99.90
18444;DHT22;9350;53.176;8.194;2023-02-28T10:00:33;5.00;99.90
18444;DHT22;9350;53.176;8.194;2023-02-28T10:03:24;4.90;99.90
18444;DHT22;9350;53.176;8.194;2023-02-28T10:05:57;4.90;99.90
18444;DHT22;9350;53.176;8.194;2023-02-28T10:08:31;5.00;99.90
18444;DHT22;9350;53.176;8.194;2023-02-28T10:11:02;5.00;99.90
18444;DHT22;9350;53.176;8.194;2023-02-28T10:13:34;5.00;99.90
18444;DHT22;9350;53.176;8.194;2023-02-28T10:16:05;5.00;99.90
18444;DHT22;9350;53.176;8.194;2023-02-28T10:18:40;5.00;99.90
18444;DHT22;9350;53.176;8.194;2023-02-28T10:21:17;5.00;99.90
18444;DHT22;9350;53.176;8.194;2023-02-28T10:23:46;5.10;99.90
18444;DHT22;9350;53.176;8.194;2023-02-28T10:26:16;5.20;99.90
18444;DHT22;9350;53.176;8.194;2023-02-28T10:28:43;5.10;99.90
18444;DHT22;9350;53.176;8.194;2023-02-28T10:31:14;5.20;99.90
18444;DHT22;9350;53.176;8.194;2023-02-28T10:33:42;5.20;99.90
18444;DHT22;9350;53.176;8.194;2023-02-28T10:36:14;5.20;99.90
18444;DHT22;9350;53.176;8.194;2023-02-28T10:38:43;5.30;99.90
18444;DHT22;9350;53.176;8.194;2023-02-28T10:41:11;5.30;99.90
18444;DHT22;9350;53.176;8.194;2023-02-28T10:43:39;5.30;99.90
18444;DHT22;9350;53.176;8.194;2023-02-28T10:46:13;5.40;99.90
18444;DHT22;9350;53.176;8.194;2023-02-28T10:49:00;5.40;99.90
18444;DHT22;9350;53.176;8.194;2023-02-28T10:51:37;5.50;99.90
18444;DHT22;9350;53.176;8.194;2023-02-28T10:54:04;5.50;99.90
18444;DHT22;9350;53.176;8.194;2023-02-28T10:56:32;5.50;99.90
18444;DHT22;9350;53.176;8.194;2023-02-28T10:59:00;5.60;99.90
18444;DHT22;9350;53.176;8.194;2023-02-28T11:01:39;5.70;99.90
18444;DHT22;9350;53.176;8.194;2023-02-28T11:04:20;5.60;99.90
18444;DHT22;9350;53.176;8.194;2023-02-28T11:07:01;5.60;99.90
18444;DHT22;9350;53.176;8.194;2023-02-28T11:09:30;5.60;99.90
18444;DHT22;9350;53.176;8.194;2023-02-28T11:11:57;5.70;99.90
18444;DHT22;9350;53.176;8.194;2023-02-28T11:14:26;5.80;99.90
18444;DHT22;9350;53.176;8.194;2023-02-28T11:16:54;5.90;99.90
18444;DHT22;9350;53.176;8.194;2023-02-28T11:19:26;5.80;99.90
18444;DHT22;9350;53.176;8.194;2023-02-28T11:21:56;5.90;99.90
18444;DHT22;9350;53.176;8.194;2023-02-28T11:24:27;5.90;99.90
18444;DHT22;9350;53.176;8.194;2023-02-28T11:26:55;5.90;99.90
18444;DHT22;9350;53.176;8.194;2023-02-28T11:29:24;6.00;99.90
18444;DHT22;9350;53.176;8.194;2023-02-28T11:32:09;6.00;99.90
18444;DHT22;9350;53.176;8.194;2023-02-28T11:34:38;6.10;99.90
18444;DHT22;9350;53.176;8.194;2023-02-28T11:37:11;6.10;99.90
18444;DHT22;9350;53.176;8.194;2023-02-28T11:39:39;6.00;99.90
18444;DHT22;9350;53.176;8.194;2023-02-28T11:42:22;6.10;99.90
18444;DHT22;9350;53.176;8.194;2023-02-28T11:45:08;6.10;99.90
18444;DHT22;9350;53.176;8.194;2023-02-28T11:47:43;6.20;99.90
18444;DHT22;9350;53.176;8.194;2023-02-28T11:50:26;6.10;99.90
18444;DHT22;9350;53.176;8.194;2023-02-28T11:53:01;6.20;99.90
18444;DHT22;9350;53.176;8.194;2023-02-28T11:55:33;6.40;99.90
18444;DHT22;9350;53.176;8.194;2023-02-28T11:58:37;6.20;99.90
18444;DHT22;9350;53.176;8.194;2023-02-28T12:01:23;6.40;99.90
18444;DHT22;9350;53.176;8.194;2023-02-28T12:04:07;6.20;99.90
18444;DHT22;9350;53.176;8.194;2023-02-28T12:06:42;6.20;99.90
18444;DHT22;9350;53.176;8.194;2023-02-28T12:09:26;6.20;99.90
18444;DHT22;9350;53.176;8.194;2023-02-28T12:12:02;6.20;99.90
18444;DHT22;9350;53.176;8.194;2023-02-28T12:14:49;6.20;99.90
18444;DHT22;9350;53.176;8.194;2023-02-28T12:17:27;6.30;99.90
18444;DHT22;9350;53.176;8.194;2023-02-28T12:20:02;6.40;99.90
18444;DHT22;9350;53.176;8.194;2023-02-28T12:22:38;6.50;99.90
18444;DHT22;9350;53.176;8.194;2023-02-28T12:25:22;6.60;99.90
18444;DHT22;9350;53.176;8.194;2023-02-28T12:27:52;6.80;99.90
18444;DHT22;9350;53.176;8.194;2023-02-28T12:30:22;6.80;99.90
18444;DHT22;9350;53.176;8.194;2023-02-28T12:32:54;7.00;99.90
18444;DHT22;9350;53.176;8.194;2023-02-28T12:35:24;6.90;99.90
18444;DHT22;9350;53.176;8.194;2023-02-28T12:37:56;7.00;99.90
18444;DHT22;9350;53.176;8.194;2023-02-28T12:40:29;6.90;99.90
18444;DHT22;9350;53.176;8.194;2023-02-28T12:43:03;6.90;99.90
18444;DHT22;9350;53.176;8.194;2023-02-28T12:45:39;7.20;99.90
18444;DHT22;9350;53.176;8.194;2023-02-28T12:48:09;7.10;99.90
18444;DHT22;9350;53.176;8.194;2023-02-28T12:50:39;7.10;99.90
18444;DHT22;9350;53.176;8.194;2023-02-28T12:53:08;7.30;99.90
18444;DHT22;9350;53.176;8.194;2023-02-28T12:55:42;7.30;99.90
18444;DHT22;9350;53.176;8.194;2023-02-28T12:58:19;7.20;99.90
18444;DHT22;9350;53.176;8.194;2023-02-28T13:01:03;7.10;99.90
18444;DHT22;9350;53.176;8.194;2023-02-28T13:09:40;6.90;99.90
18444;DHT22;9350;53.176;8.194;2023-02-28T13:12:13;6.80;99.90
18444;DHT22;9350;53.176;8.194;2023-02-28T13:14:42;6.90;99.90
18444;DHT22;9350;53.176;8.194;2023-02-28T13:17:14;6.80;99.90
18444;DHT22;9350;53.176;8.194;2023-02-28T13:19:46;6.80;99.90
18444;DHT22;9350;53.176;8.194;2023-02-28T13:22:38;6.80;99.90
18444;DHT22;9350;53.176;8.194;2023-02-28T13:34:39;6.80;99.90
18444;DHT22;9350;53.176;8.194;2023-02-28T13:37:32;6.80;99.90
18444;DHT22;9350;53.176;8.194;2023-02-28T13:40:22;6.90;99.90
18444;DHT22;9350;53.176;8.194;2023-02-28T13:42:52;6.70;99.90
18444;DHT22;9350;53.176;8.194;2023-02-28T13:45:27;6.60;99.90
18444;DHT22;9350;53.176;8.194;2023-02-28T13:47:59;6.70;99.90
18444;DHT22;9350;53.176;8.194;2023-02-28T13:50:32;6.70;99.90
18444;DHT22;9350;53.176;8.194;2023-02-28T13:56:20;6.60;99.90
18444;DHT22;9350;53.176;8.194;2023-02-28T13:58:54;7.10;99.90
18444;DHT22;9350;53.176;8.194;2023-02-28T14:01:48;6.70;99.90
18444;DHT22;9350;53.176;8.194;2023-02-28T14:04:46;6.60;99.90
18444;DHT22;9350;53.176;8.194;2023-02-28T14:07:20;6.70;99.90
18444;DHT22;9350;53.176;8.194;2023-02-28T14:09:57;6.60;99.90
18444;DHT22;9350;53.176;8.194;2023-02-28T14:15:40;6.60;99.90
18444;DHT22;9350;53.176;8.194;2023-02-28T14:18:19;6.60;99.90
18444;DHT22;9350;53.176;8.194;2023-02-28T14:20:52;6.60;99.90
18444;DHT22;9350;53.176;8.194;2023-02-28T14:23:32;6.60;99.90
18444;DHT22;9350;53.176;8.194;2023-02-28T14:26:05;6.70;99.90
18444;DHT22;9350;53.176;8.194;2023-02-28T14:28:52;6.70;99.90
18444;DHT22;9350;53.176;8.194;2023-02-28T14:31:24;6.60;99.90
18444;DHT22;9350;53.176;8.194;2023-02-28T14:34:05;6.60;99.90
18444;DHT22;9350;53.176;8.194;2023-02-28T14:36:40;6.60;99.90
18444;DHT22;9350;53.176;8.194;2023-02-28T14:39:10;6.50;99.90
18444;DHT22;9350;53.176;8.194;2023-02-28T14:41:40;6.60;99.90
18444;DHT22;9350;53.176;8.194;2023-02-28T14:44:16;6.70;99.90
18444;DHT22;9350;53.176;8.194;2023-02-28T14:46:44;6.70;99.90
18444;DHT22;9350;53.176;8.194;2023-02-28T14:49:17;6.70;99.90
18444;DHT22;9350;53.176;8.194;2023-02-28T14:51:45;6.80;99.90
18444;DHT22;9350;53.176;8.194;2023-02-28T14:54:15;6.70;99.90
18444;DHT22;9350;53.176;8.194;2023-02-28T14:56:43;6.60;99.90
18444;DHT22;9350;53.176;8.194;2023-02-28T14:59:25;6.60;99.90
18444;DHT22;9350;53.176;8.194;2023-02-28T15:01:52;6.60;99.90
18444;DHT22;9350;53.176;8.194;2023-02-28T15:04:25;6.60;99.90
18444;DHT22;9350;53.176;8.194;2023-02-28T15:09:45;6.50;99.90
18444;DHT22;9350;53.176;8.194;2023-02-28T15:12:14;6.50;99.90
18444;DHT22;9350;53.176;8.194;2023-02-28T15:14:42;6.60;99.90
18444;DHT22;9350;53.176;8.194;2023-02-28T15:17:16;6.60;99.90
18444;DHT22;9350;53.176;8.194;2023-02-28T15:19:52;6.70;99.90
18444;DHT22;9350;53.176;8.194;2023-02-28T15:22:23;6.70;99.90
18444;DHT22;9350;53.176;8.194;2023-02-28T15:24:56;6.70;99.90
18444;DHT22;9350;53.176;8.194;2023-02-28T15:27:25;6.70;99.90
18444;DHT22;9350;53.176;8.194;2023-02-28T15:29:56;6.60;99.90
18444;DHT22;9350;53.176;8.194;2023-02-28T15:32:28;6.60;99.90
18444;DHT22;9350;53.176;8.194;2023-02-28T15:34:55;6.60;99.90
18444;DHT22;9350;53.176;8.194;2023-02-28T15:37:37;6.60;99.90
18444;DHT22;9350;53.176;8.194;2023-02-28T15:40:13;6.70;99.90
18444;DHT22;9350;53.176;8.194;2023-02-28T15:42:40;6.60;99.90
18444;DHT22;9350;53.176;8.194;2023-02-28T15:45:27;6.60;99.90
18444;DHT22;9350;53.176;8.194;2023-02-28T15:47:54;6.50;99.90
18444;DHT22;9350;53.176;8.194;2023-02-28T15:50:21;6.40;99.90
18444;DHT22;9350;53.176;8.194;2023-02-28T15:52:48;6.40;99.90
18444;DHT22;9350;53.176;8.194;2023-02-28T15:55:20;6.50;99.90
18444;DHT22;9350;53.176;8.194;2023-02-28T15:57:50;6.60;99.90
18444;DHT22;9350;53.176;8.194;2023-02-28T16:00:20;6.50;99.90
18444;DHT22;9350;53.176;8.194;2023-02-28T16:02:48;6.50;99.90
18444;DHT22;9350;53.176;8.194;2023-02-28T16:05:23;6.50;99.90
18444;DHT22;9350;53.176;8.194;2023-02-28T16:07:56;6.60;99.90
18444;DHT22;9350;53.176;8.194;2023-02-28T16:10:26;6.60;99.90
18444;DHT22;9350;53.176;8.194;2023-02-28T16:12:55;6.60;99.90
18444;DHT22;9350;53.176;8.194;2023-02-28T16:15:24;6.50;99.90
18444;DHT22;9350;53.176;8.194;2023-02-28T16:17:51;6.40;99.90
18444;DHT22;9350;53.176;8.194;2023-02-28T16:20:20;6.30;99.90
18444;DHT22;9350;53.176;8.194;2023-02-28T16:22:47;6.20;99.90
18444;DHT22;9350;53.176;8.194;2023-02-28T16:25:15;6.20;99.90
18444;DHT22;9350;53.176;8.194;2023-02-28T16:27:44;6.20;99.90
18444;DHT22;9350;53.176;8.194;2023-02-28T16:30:19;6.00;99.90
18444;DHT22;9350;53.176;8.194;2023-02-28T16:32:46;6.00;99.90
18444;DHT22;9350;53.176;8.194;2023-02-28T16:35:13;5.80;99.90
18444;DHT22;9350;53.176;8.194;2023-02-28T16:37:40;5.80;99.90
18444;DHT22;9350;53.176;8.194;2023-02-28T16:40:09;5.70;99.90
18444;DHT22;9350;53.176;8.194;2023-02-28T16:42:40;5.70;99.90
18444;DHT22;9350;53.176;8.194;2023-02-28T16:45:15;5.60;99.90
18444;DHT22;9350;53.176;8.194;2023-02-28T16:47:43;5.60;99.90
18444;DHT22;9350;53.176;8.194;2023-02-28T16:50:13;5.50;99.90
18444;DHT22;9350;53.176;8.194;2023-02-28T16:52:40;5.40;99.90
18444;DHT22;9350;53.176;8.194;2023-02-28T16:55:08;5.30;99.90
18444;DHT22;9350;53.176;8.194;2023-02-28T16:57:35;5.20;99.90